Time;durP1;ratioP1;P1;durP2;ratioP2;P2;SDS_P1;SDS_P2;PMS_P1;PMS_P2;Temp;Humidity;BMP_temperature;BMP_pressure;BME280_temperature;BME280_humidity;BME280_pressure;Samples;Min_cycle;Max_cycle;Signal;HPM_P1;HPM_P2
2022/04/29 00:02:56;;;;;;;6.92;3.22;;;;;;;11.88;50.46;100743.72;1746424;82;21798;-85
2022/04/29 00:06:02;;;;;;;13.10;2.70;;;;;;;11.91;50.54;100739.27;1747603;82;21666;-85
2022/04/29 00:09:10;;;;;;;7.30;3.17;;;;;;;11.93;50.35;100738.56;1747499;82;21187;-85
2022/04/29 00:12:19;;;;;;;6.08;3.27;;;;;;;11.95;50.32;100747.48;1746293;82;21217;-85
2022/04/29 00:15:25;;;;;;;6.00;2.87;;;;;;;11.96;50.35;100739.59;1746041;82;21201;-85
2022/04/29 00:18:31;;;;;;;6.35;2.80;;;;;;;11.97;50.72;100739.08;1747192;82;21734;-85
2022/04/29 00:21:37;;;;;;;8.75;3.12;;;;;;;11.95;50.46;100743.38;1747738;82;21280;-85
2022/04/29 00:24:43;;;;;;;5.00;2.77;;;;;;;11.97;50.59;100741.82;1746401;82;21166;-85
2022/04/29 00:27:49;;;;;;;7.37;3.67;;;;;;;11.98;50.47;100744.89;1746562;82;21217;-85
2022/04/29 00:30:55;;;;;;;13.38;4.08;;;;;;;11.98;50.39;100740.27;1745881;82;21196;-84
2022/04/29 00:34:02;;;;;;;5.90;3.35;;;;;;;11.98;50.53;100738.89;1745700;82;21791;-84
2022/04/29 00:37:07;;;;;;;9.55;3.05;;;;;;;12.00;50.81;100737.37;1747201;82;21751;-85
2022/04/29 00:40:16;;;;;;;7.12;3.60;;;;;;;11.98;51.24;100734.78;1747584;82;21786;-85
2022/04/29 00:43:21;;;;;;;5.12;3.22;;;;;;;11.98;51.66;100744.89;1745807;82;21221;-85
2022/04/29 00:46:27;;;;;;;8.00;3.52;;;;;;;11.95;52.20;100736.52;1747447;82;21178;-85
2022/04/29 00:49:35;;;;;;;8.53;3.55;;;;;;;11.92;52.51;100735.48;1747744;80;21210;-85
2022/04/29 00:52:46;;;;;;;4.25;2.75;;;;;;;11.86;52.68;100726.61;1746858;82;21783;-85
2022/04/29 00:55:52;;;;;;;5.90;3.25;;;;;;;11.84;52.99;100725.05;1747627;82;21202;-85
2022/04/29 00:59:17;;;;;;;5.90;3.60;;;;;;;11.77;53.21;100731.20;1747362;82;21166;-85
2022/04/29 01:02:23;;;;;;;5.00;3.02;;;;;;;11.73;53.96;100731.73;1746980;82;21238;-85
2022/04/29 01:05:33;;;;;;;3.98;2.22;;;;;;;11.66;53.39;100723.84;1745761;82;21230;-85
2022/04/29 01:08:39;;;;;;;5.60;2.77;;;;;;;11.63;53.79;100734.66;1746261;82;21205;-85
2022/04/29 01:11:45;;;;;;;4.95;2.25;;;;;;;11.59;53.81;100731.06;1747684;82;21202;-84
2022/04/29 01:14:51;;;;;;;8.65;2.40;;;;;;;11.55;54.02;100727.80;1725523;82;21210;-84
2022/04/29 01:18:06;;;;;;;6.78;2.60;;;;;;;11.48;54.32;100722.17;1746518;80;21833;-85
2022/04/29 01:21:16;;;;;;;3.40;2.15;;;;;;;11.44;54.31;100720.80;1761038;81;21219;-85
2022/04/29 01:24:21;;;;;;;5.37;2.45;;;;;;;11.40;54.21;100727.64;1760626;81;21828;-85
2022/04/29 01:27:27;;;;;;;11.35;2.37;;;;;;;11.38;53.74;100726.09;1759813;81;21264;-85
2022/04/29 01:30:33;;;;;;;4.08;2.27;;;;;;;11.37;53.25;100729.34;1758827;81;21208;-84
2022/04/29 01:33:39;;;;;;;5.35;2.45;;;;;;;11.37;53.13;100732.60;1759333;81;21227;-85
2022/04/29 01:36:45;;;;;;;4.50;2.12;;;;;;;11.36;53.16;100735.86;1747057;81;21248;-84
2022/04/29 01:39:51;;;;;;;4.42;1.72;;;;;;;11.38;53.29;100735.67;1715799;83;21245;-84
2022/04/29 01:42:56;;;;;;;4.70;1.82;;;;;;;11.38;53.42;100739.78;1716191;83;21204;-84
2022/04/29 01:46:02;;;;;;;8.95;1.75;;;;;;;11.37;53.64;100736.71;1716087;83;21169;-84
2022/04/29 01:49:27;;;;;;;7.45;2.12;;;;;;;11.34;53.76;100736.56;1722910;82;21249;-84
2022/04/29 01:52:34;;;;;;;6.15;2.22;;;;;;;11.31;53.94;100748.36;1746170;82;21222;-84
2022/04/29 01:55:33;;;;;;;;;;;;;;;11.27;53.91;100745.09;1748987;82;21230;-85
2022/04/29 01:58:43;;;;;;;4.92;2.77;;;;;;;11.25;54.12;100745.80;1742994;82;20214;-84
2022/04/29 02:01:49;;;;;;;7.17;2.60;;;;;;;11.21;54.41;100738.94;1743799;82;21766;-78
2022/04/29 02:04:55;;;;;;;9.20;2.58;;;;;;;11.17;54.54;100737.05;1742962;82;21218;-84
2022/04/29 02:08:01;;;;;;;6.12;2.12;;;;;;;11.16;54.71;100730.38;1742710;82;21225;-84
2022/04/29 02:11:08;;;;;;;4.55;1.98;;;;;;;11.13;54.96;100730.20;1742471;82;21190;-84
2022/04/29 02:14:17;;;;;;;3.42;2.08;;;;;;;11.09;55.40;100734.81;1743761;82;21319;-85
2022/04/29 02:17:25;;;;;;;3.77;2.10;;;;;;;11.02;55.45;100734.64;1742635;82;21245;-84
2022/04/29 02:20:33;;;;;;;5.40;1.98;;;;;;;10.97;55.25;100741.14;1743384;81;21214;-84
2022/04/29 02:23:38;;;;;;;2.40;1.80;;;;;;;10.94;55.00;100737.36;1742546;81;21218;-85
2022/04/29 02:26:44;;;;;;;3.75;2.02;;;;;;;10.92;55.04;100751.22;1742912;82;21197;-84
2022/04/29 02:29:50;;;;;;;4.00;1.87;;;;;;;10.90;54.92;100743.67;1743971;82;21795;-84
2022/04/29 02:32:55;;;;;;;4.12;2.17;;;;;;;10.88;54.74;100752.58;1741408;82;21601;-84
2022/04/29 02:36:02;;;;;;;12.00;2.60;;;;;;;10.87;54.79;100752.24;1732531;82;21215;-84
2022/04/29 02:39:09;;;;;;;6.67;1.70;;;;;;;10.87;54.46;100749.50;1756083;81;21197;-84
2022/04/29 02:42:15;;;;;;;3.42;1.75;;;;;;;10.87;54.04;100749.50;1762185;81;21795;-84
2022/04/29 02:45:21;;;;;;;4.50;1.70;;;;;;;10.90;53.47;100765.56;1762125;81;21260;-84
2022/04/29 02:48:26;;;;;;;7.15;1.98;;;;;;;10.93;52.72;100773.45;1761540;81;21218;-84
2022/04/29 02:51:20;;;;;;;3.58;1.95;;;;;;;10.98;52.10;100784.75;1761349;81;21218;-84
2022/04/29 02:54:25;;;;;;;3.72;1.67;;;;;;;11.04;51.86;100776.89;1762314;81;21210;-84
2022/04/29 02:57:33;;;;;;;3.25;1.67;;;;;;;11.09;51.71;100785.45;1761375;81;21178;-84
2022/04/29 03:00:39;;;;;;;4.83;1.87;;;;;;;11.10;51.55;100780.31;1759393;81;21186;-78
2022/04/29 03:03:46;;;;;;;7.10;2.10;;;;;;;11.10;51.23;100787.16;1760929;81;21194;-78
2022/04/29 03:06:54;;;;;;;8.13;2.12;;;;;;;11.12;50.98;100794.20;1761082;81;21174;-79
2022/04/29 03:10:05;;;;;;;3.05;1.52;;;;;;;11.15;50.95;100801.20;1758296;81;21724;-79
2022/04/29 03:13:11;;;;;;;4.12;1.80;;;;;;;11.16;50.57;100796.09;1761524;81;21221;-79
2022/04/29 03:16:20;;;;;;;2.60;1.62;;;;;;;11.16;50.76;100798.83;1762441;81;21546;-79
2022/04/29 03:19:29;;;;;;;3.62;1.65;;;;;;;11.18;50.40;100789.92;1762397;81;21550;-78
2022/04/29 03:22:37;;;;;;;3.90;1.90;;;;;;;11.20;50.29;100802.44;1761993;81;21233;-78
2022/04/29 03:25:46;;;;;;;4.78;1.90;;;;;;;11.21;49.82;100780.86;1762628;81;21230;-79
2022/04/29 03:28:53;;;;;;;3.75;2.00;;;;;;;11.25;50.29;100793.20;1760939;81;21534;-78
2022/04/29 03:31:58;;;;;;;2.75;1.57;;;;;;;11.27;49.89;100795.76;1762237;81;21526;-78
2022/04/29 03:35:07;;;;;;;3.17;1.70;;;;;;;11.30;50.00;100801.42;1756022;81;21743;-78
2022/04/29 03:38:11;;;;;;;5.00;2.12;;;;;;;11.32;49.92;100802.09;1759439;80;21708;-78
2022/04/29 03:44:30;;;;;;;3.42;1.50;;;;;;;11.38;49.72;100800.04;1686454;85;21200;-79
2022/04/29 03:47:36;;;;;;;3.45;1.75;;;;;;;11.38;49.84;100805.00;1691237;83;21240;-79
2022/04/29 03:50:48;;;;;;;2.42;1.50;;;;;;;11.41;49.81;100795.09;1626904;88;21208;-78
2022/04/29 03:53:55;;;;;;;4.42;1.80;;;;;;;11.44;49.83;100802.98;1680682;85;21263;-78
2022/04/29 03:57:03;;;;;;;1.95;1.47;;;;;;;11.48;49.76;100800.76;1655170;86;21224;-78
2022/04/29 04:00:09;;;;;;;5.28;1.60;;;;;;;11.51;49.37;100801.77;1627253;88;21248;-78
2022/04/29 04:03:17;;;;;;;4.92;1.55;;;;;;;11.55;49.44;100810.51;1654407;85;21769;-78
2022/04/29 04:09:49;;;;;;;2.42;1.22;;;;;;;11.63;48.96;100810.00;1655386;86;21188;-78
2022/04/29 04:12:57;;;;;;;3.98;2.27;;;;;;;11.65;48.18;100810.67;1627432;88;21327;-78
2022/04/29 04:16:05;;;;;;;5.35;1.70;;;;;;;11.71;48.46;100815.98;1599677;88;21228;-79
2022/04/29 04:19:12;;;;;;;5.85;2.20;;;;;;;11.76;48.56;100821.31;1658559;84;21172;-78
2022/04/29 04:22:18;;;;;;;7.75;2.10;;;;;;;11.83;48.19;100821.50;1625730;88;21275;-79
2022/04/29 04:25:24;;;;;;;6.58;1.98;;;;;;;11.92;48.21;100822.36;1606603;88;21189;-79
2022/04/29 04:28:33;;;;;;;3.62;1.80;;;;;;;12.00;47.84;100828.70;1624682;88;21224;-79
2022/04/29 04:31:38;;;;;;;5.87;1.85;;;;;;;12.09;48.07;100839.63;1625484;88;21560;-79
2022/04/29 04:34:53;;;;;;;10.13;1.90;;;;;;;12.14;48.19;100841.33;1648112;87;21261;-79
2022/04/29 04:37:58;;;;;;;4.08;1.80;;;;;;;12.17;48.21;100834.14;1652980;85;21228;-79
2022/04/29 04:41:08;;;;;;;3.45;1.77;;;;;;;12.17;48.32;100845.11;1654668;86;21201;-78
2022/04/29 04:44:15;;;;;;;2.25;1.30;;;;;;;12.15;48.57;100845.30;1645885;86;21205;-78
2022/04/29 04:47:22;;;;;;;3.22;1.55;;;;;;;12.12;48.16;100851.11;1644384;86;21284;-78
2022/04/29 04:50:28;;;;;;;3.45;2.00;;;;;;;12.11;47.93;100836.22;1644666;87;21205;-78
2022/04/29 04:53:33;;;;;;;8.75;1.40;;;;;;;12.10;47.42;100844.11;1647829;85;21239;-79
2022/04/29 04:56:40;;;;;;;4.28;1.50;;;;;;;12.09;47.35;100842.38;1644030;85;21761;-78
2022/04/29 04:59:45;;;;;;;6.65;2.30;;;;;;;12.10;47.29;100845.48;1632028;87;21292;-78
2022/04/29 05:02:54;;;;;;;5.53;2.00;;;;;;;12.11;46.66;100838.95;1653950;84;21248;-78
2022/04/29 05:06:07;;;;;;;3.08;1.32;;;;;;;12.16;46.63;100840.66;1644289;85;21185;-78
2022/04/29 05:09:11;;;;;;;5.92;2.00;;;;;;;12.23;46.94;100830.69;1645154;85;21164;-78
2022/04/29 05:12:17;;;;;;;9.75;1.67;;;;;;;12.28;47.22;100846.99;1660752;84;21220;-78
2022/04/29 05:15:26;;;;;;;4.10;1.70;;;;;;;12.34;46.92;100845.43;1658968;84;21194;-78
2022/04/29 05:18:33;;;;;;;3.87;1.62;;;;;;;12.35;45.60;100845.77;1662630;84;21212;-78
2022/04/29 05:21:40;;;;;;;8.25;1.62;;;;;;;12.35;45.13;100840.28;1661690;84;21188;-78
2022/04/29 05:24:48;;;;;;;4.87;1.87;;;;;;;12.39;45.97;100845.76;1661632;86;21250;-78
2022/04/29 05:27:56;;;;;;;3.80;1.50;;;;;;;12.41;46.06;100852.44;1654469;85;21247;-78
2022/04/29 05:31:15;;;;;;;3.83;1.45;;;;;;;12.43;45.69;100852.61;1663392;84;21224;-85
2022/04/29 05:34:25;;;;;;;4.15;2.12;;;;;;;12.44;45.91;100851.58;1658542;86;21202;-84
2022/04/29 05:37:45;;;;;;;3.25;1.55;;;;;;;12.46;45.83;100856.36;1657505;84;21230;-84
2022/04/29 05:44:15;;;;;;;3.67;1.62;;;;;;;12.56;45.88;100856.67;1664299;84;21209;-85
2022/04/29 05:47:21;;;;;;;5.95;2.00;;;;;;;12.60;45.56;100860.78;1656562;84;21190;-85
2022/04/29 05:50:27;;;;;;;3.40;1.80;;;;;;;12.66;46.06;100862.33;1675171;85;21224;-85
2022/04/29 05:53:32;;;;;;;4.72;1.67;;;;;;;12.73;44.87;100860.56;1671472;85;21229;-85
2022/04/29 05:56:39;;;;;;;7.90;1.87;;;;;;;12.81;45.62;100852.83;1673274;84;21545;-85
2022/04/29 05:59:38;;;;;;;;;;;;;;;12.91;45.40;100865.83;1673570;85;21221;-85
2022/04/29 06:02:50;;;;;;;8.83;1.60;;;;;;;12.97;44.33;100867.00;1668123;84;20228;-85
2022/04/29 06:05:56;;;;;;;13.08;2.05;;;;;;;13.02;45.75;100864.56;1641763;87;21197;-85
2022/04/29 06:09:03;;;;;;;2.77;1.50;;;;;;;13.13;45.31;100856.47;1640562;87;21196;-85
2022/04/29 06:12:09;;;;;;;5.90;1.62;;;;;;;13.22;45.33;100860.40;1640256;87;21996;-85
2022/04/29 06:15:19;;;;;;;3.72;1.52;;;;;;;13.28;45.22;100860.19;1668976;84;21227;-85
2022/04/29 06:18:36;;;;;;;2.92;1.40;;;;;;;13.34;44.18;100860.83;1664357;84;21224;-84
2022/04/29 06:21:53;;;;;;;3.90;1.67;;;;;;;13.39;42.67;100865.78;1668518;84;21746;-85
2022/04/29 06:25:00;;;;;;;8.20;2.20;;;;;;;13.41;42.83;100868.70;1673211;84;21802;-84
2022/04/29 06:28:10;;;;;;;3.53;1.67;;;;;;;13.48;44.10;100883.93;1673763;84;21279;-78
2022/04/29 06:31:16;;;;;;;6.72;2.02;;;;;;;13.58;43.37;100868.58;1672762;84;21210;-77
2022/04/29 06:34:28;;;;;;;4.20;1.70;;;;;;;13.72;43.83;100859.54;1674505;85;21199;-79
2022/04/29 06:37:34;;;;;;;5.25;2.02;;;;;;;13.87;43.74;100863.72;1667182;85;21272;-79
2022/04/29 06:40:58;;;;;;;6.75;1.92;;;;;;;13.95;42.91;100856.78;1670325;84;21465;-78
2022/04/29 06:44:11;;;;;;;5.50;1.65;;;;;;;14.08;42.99;100861.14;1682395;84;21775;-78
2022/04/29 06:47:28;;;;;;;3.52;1.75;;;;;;;14.20;42.41;100864.28;1617604;85;21173;-79
2022/04/29 06:50:52;;;;;;;4.90;1.47;;;;;;;14.34;40.62;100867.58;1670721;83;21785;-78
2022/04/29 06:54:03;;;;;;;4.70;2.60;;;;;;;14.47;42.39;100867.80;1652357;86;21223;-79
2022/04/29 06:57:11;;;;;;;3.35;1.12;;;;;;;14.66;41.87;100857.30;1684100;83;21261;-84
2022/04/29 07:00:19;;;;;;;6.55;1.67;;;;;;;14.83;40.88;100872.07;1684333;85;21793;-84
2022/04/29 07:03:24;;;;;;;6.33;2.33;;;;;;;15.00;41.51;100866.34;1684056;83;21223;-84
2022/04/29 07:06:31;;;;;;;9.68;2.70;;;;;;;15.13;39.43;100877.55;1685701;84;21188;-84
2022/04/29 07:09:43;;;;;;;8.30;2.02;;;;;;;15.18;38.27;100876.97;1684338;85;21808;-84
2022/04/29 07:13:09;;;;;;;5.35;1.90;;;;;;;15.23;37.95;100886.36;1685247;84;21204;-84
2022/04/29 07:16:15;;;;;;;7.95;1.45;;;;;;;15.30;38.35;100879.56;1685107;84;21833;-84
2022/04/29 07:19:39;;;;;;;4.53;1.40;;;;;;;15.36;37.58;100877.94;1685648;85;21739;-84
2022/04/29 07:22:47;;;;;;;7.10;1.27;;;;;;;15.35;36.58;100882.59;1676186;84;21272;-85
2022/04/29 07:25:53;;;;;;;5.12;1.30;;;;;;;15.29;35.58;100869.08;1670874;85;21235;-84
2022/04/29 07:29:01;;;;;;;10.18;1.45;;;;;;;15.26;37.13;100872.20;1683591;85;21220;-84
2022/04/29 07:32:03;;;;;;;3.15;1.20;;;;;;;15.30;37.13;100867.17;1684622;84;21242;-84
2022/04/29 07:42:04;;;;;;;5.65;1.25;;;;;;;15.32;37.04;100863.68;1684742;83;21259;-85
2022/04/29 07:45:10;;;;;;;6.92;1.52;;;;;;;15.44;37.07;100864.05;1676854;85;21192;-84
2022/04/29 07:48:29;;;;;;;5.72;1.70;;;;;;;15.59;38.15;100883.61;1643311;84;21208;-84
2022/04/29 07:51:37;;;;;;;3.75;1.32;;;;;;;15.74;35.89;100893.77;1670009;84;21164;-84
2022/04/29 07:54:44;;;;;;;7.33;2.10;;;;;;;15.83;36.35;100871.37;1665314;84;21164;-81
2022/04/29 07:57:51;;;;;;;1.72;1.37;;;;;;;16.00;35.64;100870.59;1663823;85;21798;-84
2022/04/29 08:00:59;;;;;;;3.85;1.65;;;;;;;16.16;36.72;100865.31;1664182;86;21744;-83
2022/04/29 08:04:06;;;;;;;7.05;1.45;;;;;;;16.33;34.98;100872.78;1665994;86;21226;-84
2022/04/29 08:07:06;;;;;;;5.78;1.30;;;;;;;16.44;35.07;100869.99;1667113;84;21193;-84
2022/04/29 08:10:13;;;;;;;3.00;1.40;;;;;;;16.51;34.36;100866.20;1664727;84;21216;-85
2022/04/29 08:13:19;;;;;;;5.70;1.30;;;;;;;16.60;37.15;100862.23;1660643;85;21209;-84
2022/04/29 08:16:44;;;;;;;1.60;1.20;;;;;;;16.74;36.38;100862.35;1654549;85;21239;-82
2022/04/29 08:20:05;;;;;;;5.28;1.32;;;;;;;16.80;36.70;100865.17;1661632;84;21177;-78
2022/04/29 08:23:12;;;;;;;1.67;1.05;;;;;;;16.84;34.67;100865.59;1656044;84;21777;-78
2022/04/29 08:26:18;;;;;;;4.30;1.65;;;;;;;16.80;35.64;100854.66;1621595;87;21184;-78
2022/04/29 08:29:24;;;;;;;2.60;1.15;;;;;;;16.82;34.86;100852.53;1638428;87;21204;-78
2022/04/29 08:32:31;;;;;;;15.70;2.12;;;;;;;16.83;36.00;100866.66;1637645;87;21745;-78
2022/04/29 08:35:42;;;;;;;4.45;1.67;;;;;;;16.88;37.01;100857.23;1652552;86;21192;-79
2022/04/29 08:38:51;;;;;;;3.65;1.27;;;;;;;16.90;36.70;100857.89;1658721;86;21240;-79
2022/04/29 08:42:00;;;;;;;3.45;1.40;;;;;;;16.95;36.99;100853.98;1656421;86;21219;-79
2022/04/29 08:45:06;;;;;;;3.52;1.22;;;;;;;16.99;37.40;100842.00;1662541;84;21195;-79
2022/04/29 08:48:22;;;;;;;4.60;1.37;;;;;;;16.97;36.20;100840.80;1649576;85;21189;-78
2022/04/29 08:51:29;;;;;;;7.25;1.35;;;;;;;16.94;36.38;100828.80;1631249;86;21180;-79
2022/04/29 08:58:47;;;;;;;2.98;1.40;;;;;;;16.99;36.16;100842.00;1640496;85;21265;-77
2022/04/29 09:01:17;;;;;;;5.08;1.55;;;;;;;17.03;35.89;100832.21;1611489;88;21232;-78
2022/04/29 09:04:23;;;;;;;3.00;1.50;;;;;;;17.03;36.10;100834.98;1643505;87;21237;-78
2022/04/29 09:07:30;;;;;;;2.80;1.25;;;;;;;17.11;36.13;100838.95;1584073;88;21282;-83
2022/04/29 09:10:38;;;;;;;6.05;1.40;;;;;;;17.18;36.30;100839.00;1623920;88;21750;-84
2022/04/29 09:13:47;;;;;;;6.25;1.40;;;;;;;17.26;35.40;100825.81;1632013;86;21747;-84
2022/04/29 09:16:55;;;;;;;2.33;1.20;;;;;;;17.39;35.78;100838.84;1618253;86;21237;-84
2022/04/29 09:20:00;;;;;;;5.87;1.20;;;;;;;17.51;35.33;100843.25;1632002;86;21169;-84
2022/04/29 09:23:08;;;;;;;8.30;1.20;;;;;;;17.48;34.38;100823.77;1612245;88;21253;-84
2022/04/29 09:26:27;;;;;;;2.65;1.22;;;;;;;17.46;35.65;100816.75;1616933;88;21250;-84
2022/04/29 09:29:36;;;;;;;6.62;1.60;;;;;;;17.41;34.62;100821.53;1594818;88;21190;-84
2022/04/29 09:32:55;;;;;;;4.15;1.50;;;;;;;17.39;35.34;100808.42;1619320;86;21182;-85
2022/04/29 09:36:08;;;;;;;3.70;1.40;;;;;;;17.40;35.04;100812.89;1631786;86;21165;-84
2022/04/29 09:39:32;;;;;;;2.17;1.40;;;;;;;17.45;35.20;100813.11;1599490;88;21183;-84
2022/04/29 09:42:49;;;;;;;2.77;1.27;;;;;;;17.52;35.90;100813.99;1600329;88;21238;-84
2022/04/29 09:45:54;;;;;;;2.80;1.37;;;;;;;17.65;35.26;100802.64;1611079;88;21250;-85
2022/04/29 09:49:09;;;;;;;3.60;1.72;;;;;;;17.81;34.67;100798.95;1604171;87;21233;-85
2022/04/29 09:52:13;;;;;;;2.83;1.55;;;;;;;17.96;33.63;100813.95;1647948;86;21193;-84
2022/04/29 09:55:24;;;;;;;2.58;1.45;;;;;;;17.98;34.83;100802.16;1653045;86;21217;-84
2022/04/29 09:58:28;;;;;;;6.25;2.05;;;;;;;18.00;33.70;100812.47;1640429;84;21264;-84
2022/04/29 10:01:34;;;;;;;4.00;1.40;;;;;;;17.99;34.33;100812.16;1613425;86;21746;-79
2022/04/29 10:04:48;;;;;;;7.00;1.20;;;;;;;18.02;33.58;100824.70;1632923;87;21202;-78
2022/04/29 10:07:57;;;;;;;3.77;1.67;;;;;;;17.97;33.59;100817.57;1650266;87;21192;-79
2022/04/29 10:11:03;;;;;;;2.90;1.30;;;;;;;17.96;33.82;100808.42;1631062;85;21204;-79
2022/04/29 10:14:09;;;;;;;9.33;2.80;;;;;;;17.93;33.76;100812.17;1654024;85;21221;-79
2022/04/29 10:24:04;;;;;;;10.80;1.70;;;;;;;17.85;33.77;100809.06;1665165;85;21212;-79
2022/04/29 10:27:09;;;;;;;8.05;1.70;;;;;;;17.89;33.86;100821.42;1656294;85;21212;-79
2022/04/29 10:30:19;;;;;;;5.12;1.60;;;;;;;17.92;33.80;100816.82;1681217;83;21225;-79
2022/04/29 10:33:30;;;;;;;3.65;1.40;;;;;;;17.94;34.75;100816.63;1680955;83;21252;-78
2022/04/29 10:36:39;;;;;;;4.08;1.30;;;;;;;17.89;33.47;100810.35;1677010;83;21165;-79
2022/04/29 10:39:45;;;;;;;4.83;1.72;;;;;;;17.85;34.20;100802.15;1684946;83;21184;-79
2022/04/29 10:43:13;;;;;;;6.22;2.58;;;;;;;17.91;35.68;100805.98;1684924;83;21235;-79
2022/04/29 10:46:24;;;;;;;9.25;2.65;;;;;;;18.02;33.95;100803.94;1656755;85;21232;-78
2022/04/29 10:49:43;;;;;;;5.40;2.52;;;;;;;18.06;35.53;100806.61;1680059;84;21244;-79
2022/04/29 10:52:52;;;;;;;5.53;2.02;;;;;;;18.04;32.84;100792.99;1669974;84;21232;-78
2022/04/29 10:55:58;;;;;;;5.35;1.85;;;;;;;18.04;34.06;100793.53;1652246;85;21593;-79
2022/04/29 10:59:21;;;;;;;5.67;3.08;;;;;;;18.02;32.71;100799.79;1659155;85;21718;-79
2022/04/29 11:02:38;;;;;;;5.30;1.50;;;;;;;18.02;33.39;100790.98;1654772;85;21197;-79
2022/04/29 11:05:44;;;;;;;7.37;1.47;;;;;;;17.99;33.26;100797.47;1674121;85;21822;-79
2022/04/29 11:08:51;;;;;;;3.67;1.42;;;;;;;17.92;33.62;100793.84;1674049;85;21766;-79
2022/04/29 11:11:56;;;;;;;4.25;1.22;;;;;;;17.93;33.88;100802.48;1671607;84;21562;-79
2022/04/29 11:15:26;;;;;;;5.08;2.20;;;;;;;17.99;32.85;100778.09;1674517;85;21165;-78
2022/04/29 11:18:33;;;;;;;6.05;1.60;;;;;;;18.08;34.30;100793.42;1670061;85;21220;-79
2022/04/29 11:24:56;;;;;;;5.45;1.67;;;;;;;18.21;34.06;100782.84;1606316;86;21214;-79
2022/04/29 11:28:14;;;;;;;8.00;2.10;;;;;;;18.10;33.29;100801.81;1612776;85;21213;-79
2022/04/29 11:31:35;;;;;;;12.75;2.02;;;;;;;17.93;34.61;100801.95;1603807;87;21793;-85
2022/04/29 11:34:41;;;;;;;7.85;2.02;;;;;;;17.71;33.27;100800.41;1653893;85;21205;-78
2022/04/29 11:37:47;;;;;;;13.20;2.20;;;;;;;17.48;34.76;100789.73;1653785;84;21202;-79
2022/04/29 11:40:52;;;;;;;6.08;2.02;;;;;;;17.22;34.77;100807.97;1654595;84;21153;-78
2022/04/29 11:43:58;;;;;;;5.05;2.58;;;;;;;17.00;34.88;100782.37;1657562;85;21215;-78
2022/04/29 11:47:05;;;;;;;7.00;2.42;;;;;;;16.81;34.63;100791.44;1657420;84;21255;-78
2022/04/29 11:50:11;;;;;;;11.35;2.72;;;;;;;16.67;35.30;100806.20;1660585;84;21240;-78
2022/04/29 11:53:18;;;;;;;18.45;3.45;;;;;;;16.58;34.36;100782.89;1621141;86;21226;-78
2022/04/29 11:56:24;;;;;;;8.08;3.27;;;;;;;16.47;34.66;100793.14;1663096;85;21715;-78
2022/04/29 11:59:31;;;;;;;5.30;2.10;;;;;;;16.34;34.81;100782.01;1675889;84;21571;-78
2022/04/29 12:02:36;;;;;;;6.47;2.17;;;;;;;16.29;34.75;100790.05;1587234;89;21216;-78
2022/04/29 12:05:44;;;;;;;5.60;1.80;;;;;;;16.27;35.73;100779.72;1680740;85;21276;-78
2022/04/29 12:08:49;;;;;;;7.10;2.35;;;;;;;16.27;35.69;100780.56;1639210;86;21602;-78
2022/04/29 12:11:59;;;;;;;9.40;2.83;;;;;;;16.28;35.55;100791.95;1660404;84;21211;-78
2022/04/29 12:15:06;;;;;;;6.95;3.12;;;;;;;16.25;34.66;100781.31;1654374;85;21181;-78
2022/04/29 12:18:17;;;;;;;4.35;2.67;;;;;;;16.24;34.21;100780.14;1652861;85;21204;-79
2022/04/29 12:21:32;;;;;;;5.50;2.27;;;;;;;16.22;33.54;100773.42;1655147;86;21800;-78
2022/04/29 12:24:48;;;;;;;4.37;2.00;;;;;;;16.25;34.35;100773.56;1654698;86;21796;-78
2022/04/29 12:27:54;;;;;;;5.97;2.30;;;;;;;16.24;34.08;100787.04;1654783;86;21565;-79
2022/04/29 12:34:49;;;;;;;8.38;2.67;;;;;;;16.21;35.01;100760.69;1642782;86;21994;-78
2022/04/29 12:37:59;;;;;;;6.67;2.42;;;;;;;16.24;35.16;100767.19;1646899;85;21264;-78
2022/04/29 12:41:05;;;;;;;6.37;2.08;;;;;;;16.28;35.36;100769.03;1633650;87;21201;-77
2022/04/29 12:47:53;;;;;;;6.08;2.25;;;;;;;16.26;34.67;100766.98;1654019;85;21232;-79
2022/04/29 12:51:01;;;;;;;3.20;1.90;;;;;;;16.22;35.77;100758.77;1654102;85;21208;-78
2022/04/29 12:54:11;;;;;;;5.75;1.82;;;;;;;16.16;34.68;100759.59;1634859;86;21814;-79
2022/04/29 12:57:17;;;;;;;7.25;1.95;;;;;;;16.05;33.65;100768.76;1644140;85;21232;-79
2022/04/29 13:00:32;;;;;;;7.78;2.17;;;;;;;15.95;33.48;100758.61;1655218;85;21229;-79
2022/04/29 13:03:38;;;;;;;8.05;2.12;;;;;;;15.86;33.89;100761.19;1654399;85;21256;-79
2022/04/29 13:06:45;;;;;;;11.25;2.55;;;;;;;15.76;34.77;100774.44;1654258;85;21881;-79
2022/04/29 13:09:51;;;;;;;8.80;2.20;;;;;;;15.66;35.79;100765.13;1655296;86;21730;-79
2022/04/29 13:12:58;;;;;;;5.33;2.35;;;;;;;15.59;36.37;100757.31;1653656;85;21247;-79
2022/04/29 13:15:56;;;;;;;4.80;1.55;;;;;;;15.55;37.08;100780.28;1654731;86;21169;-79
2022/04/29 13:18:50;;;;;;;4.30;2.33;;;;;;;15.53;36.92;100766.38;1655824;86;21260;-79
2022/04/29 13:21:36;;;;;;;10.30;3.17;;;;;;;15.49;36.96;100765.91;1655016;85;21236;-79
2022/04/29 13:24:42;;;;;;;16.10;3.08;;;;;;;15.50;37.82;100777.27;1655727;86;21232;-78
2022/04/29 13:27:48;;;;;;;9.78;2.85;;;;;;;15.49;38.09;100767.30;1654145;86;21177;-79
2022/04/29 13:30:53;;;;;;;3.65;2.35;;;;;;;15.42;37.83;100764.98;1655545;84;21329;-79
2022/04/29 13:37:06;;;;;;;8.18;2.52;;;;;;;15.29;38.56;100769.86;1654803;86;21758;-79
2022/04/29 13:40:13;;;;;;;;;;;;;;;15.24;38.92;100776.98;1629779;88;21168;-79
2022/04/29 13:43:20;;;;;;;7.10;3.30;;;;;;;15.20;38.41;100766.05;1651307;86;20200;-79
2022/04/29 13:46:26;;;;;;;3.85;2.27;;;;;;;15.15;38.87;100769.88;1618190;88;21208;-79
2022/04/29 13:49:32;;;;;;;7.45;2.98;;;;;;;15.12;38.66;100771.67;1622517;88;21283;-78
2022/04/29 13:56:02;;;;;;;5.05;2.90;;;;;;;15.04;37.57;100769.35;1668001;85;21225;-78
2022/04/29 13:59:34;;;;;;;10.95;3.20;;;;;;;15.00;37.49;100762.52;1661940;85;21278;-79
2022/04/29 14:02:42;;;;;;;8.13;2.85;;;;;;;14.97;37.51;100771.19;1666335;85;21240;-79
2022/04/29 14:05:50;;;;;;;11.00;2.95;;;;;;;14.94;37.61;100770.19;1665983;85;21191;-79
2022/04/29 14:08:55;;;;;;;5.20;2.42;;;;;;;14.90;38.02;100771.63;1618290;88;21224;-78
2022/04/29 14:12:02;;;;;;;12.25;2.87;;;;;;;14.87;38.82;100777.53;1629027;88;21231;-78
2022/04/29 14:15:08;;;;;;;13.72;2.58;;;;;;;14.82;39.90;100766.25;1627776;88;21238;-79
2022/04/29 14:18:13;;;;;;;9.30;2.70;;;;;;;14.77;39.70;100774.20;1610842;88;21245;-79
2022/04/29 14:21:19;;;;;;;11.18;2.87;;;;;;;14.67;39.84;100766.77;1627620;88;21196;-79
2022/04/29 14:24:26;;;;;;;11.05;2.15;;;;;;;14.56;40.42;100768.97;1655887;86;21191;-79
2022/04/29 14:27:31;;;;;;;5.47;2.52;;;;;;;14.44;40.76;100764.95;1628584;88;21268;-79
2022/04/29 14:30:36;;;;;;;10.00;2.00;;;;;;;14.33;41.73;100765.44;1656108;86;21195;-79
2022/04/29 14:33:42;;;;;;;5.08;2.47;;;;;;;14.22;41.61;100772.27;1628022;88;21239;-79
2022/04/29 14:36:48;;;;;;;4.58;2.08;;;;;;;14.13;43.10;100772.55;1634465;85;21166;-79
2022/04/29 14:39:55;;;;;;;3.62;1.95;;;;;;;14.02;43.53;100774.73;1651295;87;21687;-84
2022/04/29 14:42:54;;;;;;;9.08;2.40;;;;;;;13.91;43.58;100776.54;1651300;85;21173;-85
2022/04/29 14:45:48;;;;;;;10.53;2.15;;;;;;;13.79;44.27;100783.02;1649804;87;21201;-85
2022/04/29 14:48:54;;;;;;;5.05;2.05;;;;;;;13.70;44.99;100788.26;1651440;87;21672;-85
2022/04/29 14:52:01;;;;;;;6.75;2.60;;;;;;;13.61;44.63;100789.37;1651009;85;21206;-84
2022/04/29 14:55:07;;;;;;;8.55;2.20;;;;;;;13.51;44.55;100781.38;1647255;87;21182;-84
2022/04/29 14:58:12;;;;;;;8.33;2.20;;;;;;;13.44;44.62;100783.13;1636936;86;21480;-84
2022/04/29 15:01:19;;;;;;;15.40;2.10;;;;;;;13.36;44.81;100790.09;1638065;87;21197;-84
2022/04/29 15:04:25;;;;;;;8.38;1.92;;;;;;;13.28;45.07;100790.98;1637940;87;21784;-84
2022/04/29 15:07:32;;;;;;;8.58;1.80;;;;;;;13.22;45.29;100785.34;1637044;86;21198;-82
2022/04/29 15:17:27;;;;;;;11.33;3.52;;;;;;;13.03;45.22;100794.88;1637014;86;21202;-79
2022/04/29 15:20:32;;;;;;;6.83;3.37;;;;;;;12.96;45.74;100802.98;1637778;87;21203;-79
2022/04/29 15:23:32;;;;;;;8.48;3.30;;;;;;;12.91;46.25;100799.93;1637103;86;21174;-78
2022/04/29 15:26:37;;;;;;;9.53;2.45;;;;;;;12.86;46.91;100795.50;1637459;86;21182;-79